KSBY/SBY METAR and TAF weather

Enter ICAO airport designator
Station Type Date Time Source
KSBY METAR 2019/09/20 19:54 UTC NOAA

KSBY 201954Z 24009KT 10SM CLR 24/10 A3023 RMK AO2 SLP239 T02390100


Station Type Date Time Source
KSBY Decoded METAR 2019/09/20 19:54 UTC NOAA

SALISBURY-WICOMICO CTY REG, MD, United States (KSBY) 38-20N 075-30W 19M
Sep 20, 2019 - 03:54 PM EDT / 2019.09.20 1954 UTC
Wind: from the WSW (240 degrees) at 10 MPH (9 KT):0
Visibility: 10 mile(s):0
Sky conditions: clear
Temperature: 75.0 F (23.9 C)
Dew Point: 50.0 F (10.0 C)
Relative Humidity: 41%
Pressure (altimeter): 30.23 in. Hg (1023 hPa)
ob: KSBY 201954Z 24009KT 10SM CLR 24/10 A3023 RMK AO2 SLP239 T02390100
cycle: 20

Station Type Date Time Source
KSBY TAF 2019/09/20 18:22 UTC NOAA

TAF KSBY 201720Z 2018/2118 26006KT P6SM SKC
FM202300 22004KT P6SM SKC
FM211200 VRB03KT P6SM SKC
FM211500 25005KT P6SM SKC

Example: see airport list